createdAt,value
2018-08-06T00:00:26.860Z,997.37
2018-08-06T00:01:27.049Z,997.37
2018-08-06T00:02:27.227Z,997.36
2018-08-06T00:03:27.412Z,997.35
2018-08-06T00:04:27.583Z,997.36
2018-08-06T00:05:27.757Z,997.37
2018-08-06T00:06:27.936Z,997.33
2018-08-06T00:07:28.125Z,997.34
2018-08-06T00:08:28.301Z,997.38
2018-08-06T00:09:28.485Z,997.35
2018-08-06T00:10:28.669Z,997.36
2018-08-06T00:11:28.858Z,997.37
2018-08-06T00:12:29.039Z,997.37
2018-08-06T00:13:29.224Z,997.35
2018-08-06T00:14:29.406Z,997.34
2018-08-06T00:15:29.582Z,997.33
2018-08-06T00:16:29.760Z,997.34
2018-08-06T00:17:29.941Z,997.31
2018-08-06T00:18:30.130Z,997.29
2018-08-06T00:19:30.298Z,997.31
2018-08-06T00:20:30.474Z,997.28
2018-08-06T00:21:30.654Z,997.30
2018-08-06T00:22:30.835Z,997.31
2018-08-06T00:23:31.014Z,997.29
2018-08-06T00:24:31.189Z,997.26
2018-08-06T00:25:31.372Z,997.29
2018-08-06T00:26:31.553Z,997.23
2018-08-06T00:27:31.733Z,997.22
2018-08-06T00:28:31.912Z,997.19
2018-08-06T00:29:32.118Z,997.21
2018-08-06T00:30:32.270Z,997.21
2018-08-06T00:31:32.460Z,997.17
2018-08-06T00:32:32.634Z,997.12
2018-08-06T00:33:32.813Z,997.12
2018-08-06T00:34:32.993Z,997.11
2018-08-06T00:35:33.179Z,997.08
2018-08-06T00:36:33.357Z,997.10
2018-08-06T00:37:33.538Z,997.11
2018-08-06T00:38:33.721Z,997.10
2018-08-06T00:39:33.898Z,997.11
2018-08-06T00:40:34.082Z,997.14
2018-08-06T00:41:34.261Z,997.09
2018-08-06T00:42:34.436Z,997.13
2018-08-06T00:43:34.613Z,997.16
2018-08-06T00:44:34.788Z,997.15
2018-08-06T00:45:35.052Z,997.13
2018-08-06T00:46:35.160Z,997.14
2018-08-06T00:47:35.340Z,997.14
2018-08-06T00:48:35.514Z,997.14
2018-08-06T00:49:35.694Z,997.12
2018-08-06T00:50:35.867Z,997.15
2018-08-06T00:51:36.041Z,997.10
2018-08-06T00:52:36.211Z,997.09
2018-08-06T00:53:36.388Z,997.05
2018-08-06T00:54:36.570Z,997.09
2018-08-06T00:55:36.755Z,997.09
2018-08-06T00:56:36.930Z,997.06
2018-08-06T00:57:37.110Z,997.07
2018-08-06T00:58:37.285Z,997.07
2018-08-06T00:59:37.472Z,997.05
2018-08-06T01:00:37.651Z,997.04
2018-08-06T01:01:37.863Z,997.04
2018-08-06T01:02:38.002Z,997.04
2018-08-06T01:03:38.180Z,997.06
2018-08-06T01:04:38.354Z,997.05
2018-08-06T01:05:38.537Z,997.04
2018-08-06T01:06:38.717Z,997.04
2018-08-06T01:07:38.892Z,997.05
2018-08-06T01:08:39.075Z,997.04
2018-08-06T01:09:39.253Z,997.03
2018-08-06T01:10:39.429Z,997.03
2018-08-06T01:11:39.607Z,997.00
2018-08-06T01:12:39.790Z,996.99
2018-08-06T01:13:39.971Z,996.99
2018-08-06T01:14:40.164Z,996.96
2018-08-06T01:15:40.353Z,997.00
2018-08-06T01:16:40.558Z,997.00
2018-08-06T01:17:40.733Z,997.01
2018-08-06T01:18:40.914Z,997.04
2018-08-06T01:19:41.098Z,996.99
2018-08-06T01:20:41.267Z,997.01
2018-08-06T01:21:41.451Z,997.00
2018-08-06T01:22:41.633Z,996.98
2018-08-06T01:23:41.807Z,997.02
2018-08-06T01:24:41.989Z,997.01
2018-08-06T01:25:42.167Z,997.02
2018-08-06T01:26:42.354Z,997.03
2018-08-06T01:27:42.527Z,997.05
2018-08-06T01:28:42.712Z,997.05
2018-08-06T01:29:42.897Z,997.05
2018-08-06T01:30:43.070Z,997.02
2018-08-06T01:31:43.252Z,997.06
2018-08-06T01:32:43.433Z,997.09
2018-08-06T01:33:43.620Z,997.07
2018-08-06T01:34:43.799Z,997.04
2018-08-06T01:35:43.984Z,997.05
2018-08-06T01:36:44.164Z,997.07
2018-08-06T01:37:44.336Z,997.07
2018-08-06T01:38:44.514Z,997.04
2018-08-06T01:39:44.690Z,997.06
2018-08-06T01:40:44.866Z,997.02
2018-08-06T01:41:45.044Z,997.03
2018-08-06T01:42:45.216Z,997.05
2018-08-06T01:43:45.397Z,997.04
2018-08-06T01:44:45.573Z,997.05
2018-08-06T01:45:45.807Z,997.07
2018-08-06T01:46:45.953Z,997.05
2018-08-06T01:47:46.129Z,997.04
2018-08-06T01:48:46.299Z,997.00
2018-08-06T01:49:46.473Z,996.99
2018-08-06T01:50:46.652Z,996.94
2018-08-06T01:51:46.822Z,996.94
2018-08-06T01:52:46.998Z,996.94
2018-08-06T01:53:47.180Z,996.96
2018-08-06T01:54:47.359Z,996.93
2018-08-06T01:55:47.534Z,996.92
2018-08-06T01:56:47.711Z,996.91
2018-08-06T01:57:47.900Z,996.90
2018-08-06T01:58:48.081Z,996.91
2018-08-06T01:59:48.254Z,996.90
2018-08-06T02:00:48.435Z,996.96
2018-08-06T02:01:48.612Z,996.95
2018-08-06T02:02:48.794Z,996.91
2018-08-06T02:03:48.964Z,996.89
2018-08-06T02:04:49.154Z,996.89
2018-08-06T02:05:49.332Z,996.85
2018-08-06T02:06:49.512Z,996.87
2018-08-06T02:07:49.688Z,996.86
2018-08-06T02:08:49.862Z,996.86
2018-08-06T02:09:50.046Z,996.82
2018-08-06T02:10:50.225Z,996.81
2018-08-06T02:11:50.396Z,996.83
2018-08-06T02:12:50.572Z,996.85
2018-08-06T02:13:50.755Z,996.78
2018-08-06T02:14:50.935Z,996.79
2018-08-06T02:15:51.110Z,996.81
2018-08-06T02:16:51.278Z,996.81
2018-08-06T02:17:51.453Z,996.75
2018-08-06T02:18:51.628Z,996.78
2018-08-06T02:19:51.813Z,996.77
2018-08-06T02:20:51.990Z,996.74
2018-08-06T02:21:52.166Z,996.76
2018-08-06T02:22:52.351Z,996.74
2018-08-06T02:23:52.533Z,996.73
2018-08-06T02:24:52.729Z,996.69
2018-08-06T02:25:52.887Z,996.69
2018-08-06T02:26:53.066Z,996.65
2018-08-06T02:27:53.232Z,996.65
2018-08-06T02:28:53.408Z,996.65
2018-08-06T02:29:53.585Z,996.63
2018-08-06T02:30:53.763Z,996.65
2018-08-06T02:31:53.942Z,996.63
2018-08-06T02:32:54.121Z,996.65
2018-08-06T02:33:54.300Z,996.66
2018-08-06T02:34:54.473Z,996.68
2018-08-06T02:35:54.652Z,996.66
2018-08-06T02:36:54.832Z,996.64
2018-08-06T02:37:55.010Z,996.65
2018-08-06T02:38:55.194Z,996.61
2018-08-06T02:39:55.371Z,996.60
2018-08-06T02:40:55.549Z,996.63
2018-08-06T02:41:55.722Z,996.59
2018-08-06T02:42:55.900Z,996.61
2018-08-06T02:43:56.083Z,996.61
2018-08-06T02:44:56.273Z,996.59
2018-08-06T02:45:56.440Z,996.63
2018-08-06T02:46:56.613Z,996.60
2018-08-06T02:47:56.789Z,996.59
2018-08-06T02:48:56.971Z,996.61
2018-08-06T02:49:57.151Z,996.61
2018-08-06T02:50:57.330Z,996.59
2018-08-06T02:51:57.512Z,996.58
2018-08-06T02:52:57.690Z,996.58
2018-08-06T02:53:57.873Z,996.59
2018-08-06T02:54:58.053Z,996.60
2018-08-06T02:55:58.233Z,996.56
2018-08-06T02:56:58.406Z,996.54
2018-08-06T02:57:58.583Z,996.54
2018-08-06T02:58:58.765Z,996.57
2018-08-06T02:59:58.950Z,996.55
2018-08-06T03:00:59.132Z,996.51
2018-08-06T03:01:59.312Z,996.54
2018-08-06T03:02:59.484Z,996.50
2018-08-06T03:03:59.667Z,996.48
2018-08-06T03:04:59.844Z,996.52
2018-08-06T03:06:00.024Z,996.45
2018-08-06T03:07:00.203Z,996.45
2018-08-06T03:08:00.390Z,996.44
2018-08-06T03:09:00.568Z,996.46
2018-08-06T03:10:00.784Z,996.45
2018-08-06T03:11:00.925Z,996.45
2018-08-06T03:12:01.107Z,996.42
2018-08-06T03:13:01.275Z,996.42
2018-08-06T03:14:01.464Z,996.42
2018-08-06T03:15:01.637Z,996.39
2018-08-06T03:16:01.819Z,996.38
2018-08-06T03:17:02.013Z,996.44
2018-08-06T03:18:02.168Z,996.42
2018-08-06T03:19:02.339Z,996.39
2018-08-06T03:20:02.521Z,996.40
2018-08-06T03:21:02.698Z,996.40
2018-08-06T03:22:02.874Z,996.45
2018-08-06T03:23:03.055Z,996.40
2018-08-06T03:24:03.236Z,996.41
2018-08-06T03:25:03.417Z,996.41
2018-08-06T03:26:03.590Z,996.42
2018-08-06T03:27:03.770Z,996.40
2018-08-06T03:28:03.952Z,996.40
2018-08-06T03:29:04.132Z,996.34
2018-08-06T03:30:04.309Z,996.38
2018-08-06T03:31:04.491Z,996.36
2018-08-06T03:32:04.675Z,996.36
2018-08-06T03:33:04.868Z,996.33
2018-08-06T03:34:05.062Z,996.39
2018-08-06T03:35:05.239Z,996.39
2018-08-06T03:36:05.428Z,996.40
2018-08-06T03:37:05.607Z,996.43
2018-08-06T03:38:05.798Z,996.41
2018-08-06T03:39:05.981Z,996.41
2018-08-06T03:40:06.203Z,996.40
2018-08-06T03:41:06.340Z,996.37
2018-08-06T03:42:06.519Z,996.40
2018-08-06T03:43:06.696Z,996.33
2018-08-06T03:44:06.881Z,996.38
2018-08-06T03:45:07.060Z,996.35
2018-08-06T03:46:07.241Z,996.33
2018-08-06T03:47:07.431Z,996.33
2018-08-06T03:48:07.605Z,996.29
2018-08-06T03:49:07.800Z,996.32
2018-08-06T03:50:07.973Z,996.31
2018-08-06T03:51:08.157Z,996.35
2018-08-06T03:52:08.340Z,996.31
2018-08-06T03:53:08.518Z,996.31
2018-08-06T03:54:08.704Z,996.31
2018-08-06T03:55:08.882Z,996.33
2018-08-06T03:56:09.066Z,996.32
2018-08-06T03:57:09.238Z,996.32
2018-08-06T03:58:09.417Z,996.38
2018-08-06T03:59:09.593Z,996.37
2018-08-06T04:00:09.771Z,996.34
2018-08-06T04:01:09.956Z,996.41
2018-08-06T04:02:10.139Z,996.38
2018-08-06T04:03:10.324Z,996.40
2018-08-06T04:04:11.988Z,996.42
2018-08-06T04:05:10.669Z,996.42
2018-08-06T04:06:10.850Z,996.43
2018-08-06T04:07:11.023Z,996.40
2018-08-06T04:08:11.204Z,996.44
2018-08-06T04:09:11.381Z,996.40
2018-08-06T04:10:11.553Z,996.40
2018-08-06T04:11:11.746Z,996.39
2018-08-06T04:12:11.927Z,996.41
2018-08-06T04:13:12.104Z,996.40
2018-08-06T04:14:12.281Z,996.44
2018-08-06T04:15:12.463Z,996.46
2018-08-06T04:16:12.646Z,996.47
2018-08-06T04:17:12.823Z,996.45
2018-08-06T04:18:13.018Z,996.43
2018-08-06T04:19:13.200Z,996.43
2018-08-06T04:20:13.374Z,996.44
2018-08-06T04:21:13.554Z,996.45
2018-08-06T04:22:13.737Z,996.43
2018-08-06T04:23:13.922Z,996.42
2018-08-06T04:24:14.105Z,996.44
2018-08-06T04:25:14.565Z,996.45
2018-08-06T04:26:14.497Z,996.41
2018-08-06T04:27:14.677Z,996.43
2018-08-06T04:28:14.859Z,996.42
2018-08-06T04:29:20.838Z,996.42
2018-08-06T04:30:16.629Z,996.41
2018-08-06T04:31:16.633Z,996.39
2018-08-06T04:32:16.798Z,996.39
2018-08-06T04:33:18.164Z,996.41
2018-08-06T04:34:18.022Z,996.45
2018-08-06T04:35:18.675Z,996.43
2018-08-06T04:36:18.680Z,996.41
2018-08-06T04:37:16.415Z,996.45
2018-08-06T04:38:16.596Z,996.43
2018-08-06T04:39:16.801Z,996.45
2018-08-06T04:40:18.951Z,996.45
2018-08-06T04:41:18.859Z,996.47
2018-08-06T04:42:17.255Z,996.49
2018-08-06T04:43:17.433Z,996.46
2018-08-06T04:44:17.608Z,996.47
2018-08-06T04:45:17.784Z,996.42
2018-08-06T04:46:17.962Z,996.46
2018-08-06T04:47:18.343Z,996.39
2018-08-06T04:48:18.603Z,996.44
2018-08-06T04:49:18.670Z,996.44
2018-08-06T04:50:18.624Z,996.42
2018-08-06T04:51:18.804Z,996.43
2018-08-06T04:52:18.985Z,996.37
2018-08-06T04:53:19.177Z,996.38
2018-08-06T04:54:19.357Z,996.35
2018-08-06T04:55:19.566Z,996.31
2018-08-06T04:56:19.755Z,996.37
2018-08-06T04:57:19.938Z,996.35
2018-08-06T04:58:20.486Z,996.37
2018-08-06T04:59:20.277Z,996.38
2018-08-06T05:00:20.460Z,996.40
2018-08-06T05:01:20.651Z,996.39
2018-08-06T05:02:20.836Z,996.40
2018-08-06T05:03:21.276Z,996.44
2018-08-06T05:04:21.178Z,996.44
2018-08-06T05:05:21.504Z,996.41
2018-08-06T05:06:21.608Z,996.44
2018-08-06T05:07:21.758Z,996.45
2018-08-06T05:08:21.942Z,996.43
2018-08-06T05:09:22.129Z,996.46
2018-08-06T05:10:22.311Z,996.43
2018-08-06T05:11:22.502Z,996.37
2018-08-06T05:12:22.667Z,996.43
2018-08-06T05:13:22.858Z,996.42
2018-08-06T05:14:23.031Z,996.41
2018-08-06T05:15:23.205Z,996.47
2018-08-06T05:16:23.396Z,996.48
2018-08-06T05:17:23.632Z,996.51
2018-08-06T05:18:23.800Z,996.52
2018-08-06T05:19:24.013Z,996.52
2018-08-06T05:20:24.174Z,996.56
2018-08-06T05:21:24.347Z,996.56
2018-08-06T05:22:24.532Z,996.57
2018-08-06T05:23:24.707Z,996.57
2018-08-06T05:24:24.895Z,996.59
2018-08-06T05:25:25.080Z,996.61
2018-08-06T05:26:25.281Z,996.58
2018-08-06T05:27:25.459Z,996.63
2018-08-06T05:28:25.630Z,996.62
2018-08-06T05:29:25.837Z,996.62
2018-08-06T05:30:26.025Z,996.64
2018-08-06T05:31:26.204Z,996.67
2018-08-06T05:32:26.384Z,996.70
2018-08-06T05:33:26.562Z,996.68
2018-08-06T05:34:26.756Z,996.66
2018-08-06T05:35:26.948Z,996.68
2018-08-06T05:36:27.151Z,996.70
2018-08-06T05:37:27.336Z,996.67
2018-08-06T05:38:27.515Z,996.70
2018-08-06T05:39:27.691Z,996.70
2018-08-06T05:40:27.868Z,996.71
2018-08-06T05:41:28.088Z,996.74
2018-08-06T05:42:28.244Z,996.75
2018-08-06T05:43:28.423Z,996.76
2018-08-06T05:44:28.601Z,996.75
2018-08-06T05:45:28.793Z,996.77
2018-08-06T05:46:28.998Z,996.76
2018-08-06T05:47:29.184Z,996.73
2018-08-06T05:48:29.368Z,996.74
2018-08-06T05:49:29.549Z,996.73
2018-08-06T05:50:29.730Z,996.73
2018-08-06T05:51:29.918Z,996.73
2018-08-06T05:52:30.098Z,996.74
2018-08-06T05:53:30.284Z,996.77
2018-08-06T05:54:30.465Z,996.77
2018-08-06T05:55:30.653Z,996.73
2018-08-06T05:56:30.829Z,996.74
2018-08-06T05:57:31.007Z,996.71
2018-08-06T05:58:31.190Z,996.70
2018-08-06T05:59:31.369Z,996.64
2018-08-06T06:00:31.544Z,996.66
2018-08-06T06:01:31.729Z,997.02
2018-08-06T06:02:31.918Z,997.01
2018-08-06T06:03:32.107Z,997.02
2018-08-06T06:04:32.287Z,997.04
2018-08-06T06:05:32.540Z,997.07
2018-08-06T06:06:32.751Z,997.06
2018-08-06T06:07:32.828Z,997.06
2018-08-06T06:08:40.600Z,997.08
2018-08-06T06:09:40.627Z,997.07
2018-08-06T06:10:33.311Z,997.06
2018-08-06T06:11:33.482Z,997.03
2018-08-06T06:12:33.695Z,997.07
2018-08-06T06:13:33.873Z,997.11
2018-08-06T06:14:34.065Z,997.12
2018-08-06T06:15:42.017Z,997.10
2018-08-06T06:16:34.468Z,997.14
2018-08-06T06:17:34.644Z,997.17
2018-08-06T06:18:34.841Z,997.10
2018-08-06T06:19:35.036Z,997.09
2018-08-06T06:20:35.219Z,997.09
2018-08-06T06:21:35.579Z,997.05
2018-08-06T06:22:35.625Z,997.03
2018-08-06T06:23:35.814Z,997.06
2018-08-06T06:24:35.997Z,997.04
2018-08-06T06:25:36.226Z,997.03
2018-08-06T06:26:36.434Z,997.01
2018-08-06T06:27:36.658Z,997.06
2018-08-06T06:28:36.879Z,997.04
2018-08-06T06:29:37.104Z,997.04
2018-08-06T06:30:37.506Z,997.00
2018-08-06T06:31:37.494Z,997.00
2018-08-06T06:32:37.555Z,996.97
2018-08-06T06:33:37.609Z,996.97
2018-08-06T06:34:37.886Z,996.96
2018-08-06T06:35:37.990Z,996.98
2018-08-06T06:36:38.166Z,996.99
2018-08-06T06:37:38.352Z,997.01
2018-08-06T06:38:38.548Z,997.00
2018-08-06T06:39:38.762Z,996.98
2018-08-06T06:40:38.987Z,996.97
2018-08-06T06:41:39.855Z,996.97
2018-08-06T06:42:39.264Z,996.91
2018-08-06T06:43:39.451Z,996.91
2018-08-06T06:44:39.684Z,996.93
2018-08-06T06:45:39.791Z,996.92
2018-08-06T06:46:39.882Z,996.89
2018-08-06T06:47:39.959Z,996.84
2018-08-06T06:48:40.148Z,996.84
2018-08-06T06:49:40.327Z,996.82
2018-08-06T06:50:40.519Z,996.82
2018-08-06T06:51:40.803Z,996.84
2018-08-06T06:52:40.880Z,996.87
2018-08-06T06:53:41.099Z,996.85
2018-08-06T06:54:41.186Z,996.89
2018-08-06T06:55:41.374Z,996.82
2018-08-06T06:56:41.550Z,996.81
2018-08-06T06:57:41.731Z,996.85
2018-08-06T06:58:41.915Z,996.84
2018-08-06T06:59:42.101Z,996.85
2018-08-06T07:00:42.294Z,996.83
2018-08-06T07:01:42.480Z,996.79
2018-08-06T07:02:42.657Z,996.85
2018-08-06T07:03:42.847Z,996.80
2018-08-06T07:04:43.033Z,996.84
2018-08-06T07:05:43.211Z,996.77
2018-08-06T07:06:43.453Z,996.79
2018-08-06T07:07:43.757Z,996.81
2018-08-06T07:08:43.775Z,996.82
2018-08-06T07:09:44.026Z,996.78
2018-08-06T07:10:44.204Z,996.71
2018-08-06T07:11:44.392Z,996.71
2018-08-06T07:12:44.583Z,996.74
2018-08-06T07:13:44.841Z,996.72
2018-08-06T07:14:44.985Z,996.70
2018-08-06T07:15:45.212Z,996.70
2018-08-06T07:16:45.405Z,996.73
2018-08-06T07:17:45.601Z,996.64
2018-08-06T07:18:45.777Z,996.66
2018-08-06T07:19:45.988Z,996.65
2018-08-06T07:20:46.189Z,996.67
2018-08-06T07:21:46.377Z,996.64
2018-08-06T07:22:47.273Z,996.61
2018-08-06T07:23:46.847Z,996.60
2018-08-06T07:24:47.080Z,996.60
2018-08-06T07:25:47.066Z,996.61
2018-08-06T07:26:47.296Z,996.59
2018-08-06T07:27:47.393Z,996.59
2018-08-06T07:28:47.581Z,996.63
2018-08-06T07:29:47.769Z,996.60
2018-08-06T07:30:48.671Z,996.62
2018-08-06T07:31:49.073Z,996.64
2018-08-06T07:32:48.394Z,996.63
2018-08-06T07:33:48.630Z,996.62
2018-08-06T07:34:48.777Z,996.64
2018-08-06T07:35:48.959Z,996.60
2018-08-06T07:36:49.135Z,996.60
2018-08-06T07:37:49.496Z,996.60
2018-08-06T07:38:50.043Z,996.57
2018-08-06T07:39:49.738Z,996.58
2018-08-06T07:40:49.798Z,996.57
2018-08-06T07:41:50.015Z,996.56
2018-08-06T07:42:50.192Z,996.60
2018-08-06T07:43:50.628Z,996.53
2018-08-06T07:44:50.606Z,996.52
2018-08-06T07:45:50.792Z,996.47
2018-08-06T07:46:50.976Z,996.47
2018-08-06T07:47:51.171Z,996.46
2018-08-06T07:48:51.348Z,996.42
2018-08-06T07:49:51.748Z,996.44
2018-08-06T07:50:51.732Z,996.42
2018-08-06T07:51:51.919Z,996.43
2018-08-06T07:52:52.112Z,996.42
2018-08-06T07:53:52.540Z,996.43
2018-08-06T07:54:52.534Z,996.41
2018-08-06T07:55:52.719Z,996.44
2018-08-06T07:56:52.904Z,996.38
2018-08-06T07:57:53.089Z,996.34
2018-08-06T07:58:53.302Z,996.33
2018-08-06T07:59:53.467Z,996.33
2018-08-06T08:00:53.674Z,996.33
2018-08-06T08:01:54.540Z,996.32
2018-08-06T08:02:53.999Z,996.27
2018-08-06T08:03:54.186Z,996.27
2018-08-06T08:04:54.381Z,996.28
2018-08-06T08:05:54.572Z,996.27
2018-08-06T08:06:54.769Z,996.28
2018-08-06T08:07:54.966Z,996.32
2018-08-06T08:08:55.139Z,996.30
2018-08-06T08:09:55.475Z,996.28
2018-08-06T08:10:55.553Z,996.32
2018-08-06T08:11:55.943Z,996.31
2018-08-06T08:12:55.885Z,996.30
2018-08-06T08:13:56.076Z,996.27
2018-08-06T08:14:56.288Z,996.28
2018-08-06T08:15:56.500Z,996.29
2018-08-06T08:16:56.678Z,996.28
2018-08-06T08:17:57.410Z,996.24
2018-08-06T08:18:57.135Z,996.23
2018-08-06T08:19:57.372Z,996.18
2018-08-06T08:20:57.575Z,996.17
2018-08-06T08:21:57.748Z,996.13
2018-08-06T08:22:57.953Z,996.13
2018-08-06T08:23:58.137Z,996.13
2018-08-06T08:24:58.324Z,996.18
2018-08-06T08:25:58.513Z,996.18
2018-08-06T08:26:58.705Z,996.32
2018-08-06T08:27:58.904Z,996.40
2018-08-06T08:28:59.085Z,996.49
2018-08-06T08:29:59.269Z,996.46
2018-08-06T08:30:59.469Z,996.47
2018-08-06T08:31:59.893Z,996.46
2018-08-06T08:32:59.828Z,996.49
2018-08-06T08:34:00.056Z,996.47
2018-08-06T08:35:00.268Z,996.45
2018-08-06T08:36:00.403Z,996.45
2018-08-06T08:37:00.703Z,996.47
2018-08-06T08:38:00.934Z,996.43
2018-08-06T08:39:00.951Z,996.45
2018-08-06T08:40:01.138Z,996.40
2018-08-06T08:41:01.335Z,996.39
2018-08-06T08:42:01.581Z,996.40
2018-08-06T08:43:01.747Z,996.39
2018-08-06T08:44:01.959Z,996.40
2018-08-06T08:45:02.159Z,996.40
2018-08-06T08:46:02.453Z,996.37
2018-08-06T08:47:02.531Z,996.41
2018-08-06T08:48:02.727Z,996.42
2018-08-06T08:49:02.903Z,996.30
2018-08-06T08:50:03.090Z,996.18
2018-08-06T08:51:03.287Z,996.10
2018-08-06T08:52:03.496Z,996.07
2018-08-06T08:53:03.683Z,996.10
2018-08-06T08:54:04.112Z,996.03
2018-08-06T08:55:04.147Z,995.99
2018-08-06T08:56:04.352Z,995.98
2018-08-06T08:57:04.571Z,995.93
2018-08-06T08:58:04.808Z,995.92
2018-08-06T08:59:04.877Z,995.96
2018-08-06T09:00:05.067Z,995.90
2018-08-06T09:01:05.266Z,995.92
2018-08-06T09:02:05.441Z,995.93
2018-08-06T09:03:05.643Z,995.91
2018-08-06T09:04:05.830Z,995.95
2018-08-06T09:05:06.027Z,995.93
2018-08-06T09:06:06.216Z,995.90
2018-08-06T09:07:06.414Z,995.89
2018-08-06T09:08:06.619Z,995.89
2018-08-06T09:09:06.820Z,995.89
2018-08-06T09:10:07.138Z,995.88
2018-08-06T09:11:07.268Z,995.86
2018-08-06T09:12:07.733Z,995.87
2018-08-06T09:13:07.982Z,995.84
2018-08-06T09:14:08.038Z,995.89
2018-08-06T09:15:07.981Z,995.83
2018-08-06T09:16:08.288Z,995.85
2018-08-06T09:17:08.405Z,995.87
2018-08-06T09:18:08.609Z,995.89
2018-08-06T09:19:08.803Z,995.87
2018-08-06T09:20:09.007Z,995.90
2018-08-06T09:21:09.240Z,995.91
2018-08-06T09:22:09.391Z,995.82
2018-08-06T09:23:09.582Z,995.85
2018-08-06T09:24:09.787Z,995.82
2018-08-06T09:25:09.968Z,995.85
2018-08-06T09:26:10.211Z,995.81
2018-08-06T09:27:10.277Z,995.81
2018-08-06T09:28:10.487Z,995.77
2018-08-06T09:29:10.665Z,995.78
2018-08-06T09:30:10.854Z,995.79
2018-08-06T09:31:11.085Z,995.76
2018-08-06T09:32:11.283Z,995.79
2018-08-06T09:33:11.479Z,995.79
2018-08-06T09:34:11.668Z,995.78
2018-08-06T09:35:11.861Z,995.73
2018-08-06T09:36:12.052Z,995.76
2018-08-06T09:37:12.265Z,995.75
2018-08-06T09:38:12.497Z,995.73
2018-08-06T09:39:12.736Z,995.73
2018-08-06T09:40:13.519Z,995.69
2018-08-06T09:41:13.216Z,995.68
2018-08-06T09:42:13.178Z,995.68
2018-08-06T09:43:13.374Z,995.68
2018-08-06T09:44:13.572Z,995.70
2018-08-06T09:45:13.759Z,995.64
2018-08-06T09:46:14.063Z,995.67
2018-08-06T09:47:14.098Z,995.67
2018-08-06T09:48:14.295Z,995.60
2018-08-06T09:49:14.532Z,995.55
2018-08-06T09:50:14.687Z,995.58
2018-08-06T09:51:15.189Z,995.61
2018-08-06T09:52:15.030Z,995.59
2018-08-06T09:53:15.220Z,995.54
2018-08-06T09:54:15.415Z,995.56
2018-08-06T09:55:15.610Z,995.60
2018-08-06T09:56:15.891Z,995.57
2018-08-06T09:57:16.031Z,995.55
2018-08-06T09:58:16.267Z,995.58
2018-08-06T09:59:16.434Z,995.61
2018-08-06T10:00:16.623Z,995.61
2018-08-06T10:01:16.815Z,995.63
2018-08-06T10:02:17.003Z,995.60
2018-08-06T10:03:17.195Z,995.57
2018-08-06T10:04:17.384Z,995.59
2018-08-06T10:05:17.594Z,995.56
2018-08-06T10:06:17.914Z,995.57
2018-08-06T10:07:17.975Z,995.54
2018-08-06T10:08:18.162Z,995.52
2018-08-06T10:09:18.351Z,995.52
2018-08-06T10:10:18.536Z,995.51
2018-08-06T10:11:19.276Z,995.52
2018-08-06T10:12:18.891Z,995.52
2018-08-06T10:13:19.089Z,995.52
2018-08-06T10:14:19.291Z,995.46
2018-08-06T10:15:19.484Z,995.46
2018-08-06T10:16:19.664Z,995.49
2018-08-06T10:17:19.864Z,995.46
2018-08-06T10:18:20.050Z,995.39
2018-08-06T10:19:20.385Z,995.40
2018-08-06T10:20:20.428Z,995.40
2018-08-06T10:21:20.622Z,995.44
2018-08-06T10:22:20.818Z,995.46
2018-08-06T10:23:21.013Z,995.43
2018-08-06T10:24:21.199Z,995.41
2018-08-06T10:25:21.401Z,995.36
2018-08-06T10:26:21.583Z,995.38
2018-08-06T10:27:21.772Z,995.31
2018-08-06T10:28:21.963Z,995.32
2018-08-06T10:29:22.160Z,995.28
2018-08-06T10:30:22.441Z,995.26
2018-08-06T10:31:22.553Z,995.21
2018-08-06T10:32:22.745Z,995.23
2018-08-06T10:33:22.934Z,995.17
2018-08-06T10:34:23.131Z,995.24
2018-08-06T10:35:23.323Z,995.23
2018-08-06T10:36:23.519Z,995.21
2018-08-06T10:37:23.713Z,995.19
2018-08-06T10:38:23.901Z,995.15
2018-08-06T10:39:24.093Z,995.19
2018-08-06T10:40:24.303Z,995.15
2018-08-06T10:41:24.486Z,995.16
2018-08-06T10:42:24.717Z,995.15
2018-08-06T10:43:25.252Z,995.17
2018-08-06T10:44:25.115Z,995.20
2018-08-06T10:45:25.342Z,995.17
2018-08-06T10:46:25.551Z,995.19
2018-08-06T10:47:25.764Z,995.16
2018-08-06T10:48:26.037Z,995.13
2018-08-06T10:49:26.165Z,995.09
2018-08-06T10:50:26.377Z,995.05
2018-08-06T10:51:26.581Z,995.04
2018-08-06T10:52:26.776Z,995.03
2018-08-06T10:53:26.972Z,994.97
2018-08-06T10:54:27.167Z,994.98
2018-08-06T10:55:27.356Z,994.94
2018-08-06T10:56:27.555Z,994.94
2018-08-06T10:57:27.771Z,994.94
2018-08-06T10:58:27.968Z,994.93
2018-08-06T10:59:28.157Z,994.94
2018-08-06T11:00:28.357Z,994.95
2018-08-06T11:01:28.540Z,994.93
2018-08-06T11:02:28.735Z,994.93
2018-08-06T11:03:28.932Z,994.88
2018-08-06T11:04:29.147Z,994.88
2018-08-06T11:05:29.334Z,994.85
2018-08-06T11:06:29.624Z,994.86
2018-08-06T11:07:29.773Z,994.85
2018-08-06T11:08:29.953Z,994.84
2018-08-06T11:09:30.148Z,994.81
2018-08-06T11:10:30.345Z,994.77
2018-08-06T11:11:30.547Z,994.78
2018-08-06T11:12:30.733Z,994.75
2018-08-06T11:13:30.926Z,994.69
2018-08-06T11:14:31.196Z,994.67
2018-08-06T11:15:31.306Z,994.63
2018-08-06T11:16:31.526Z,994.61
2018-08-06T11:17:33.291Z,994.57
2018-08-06T11:18:32.991Z,994.56
2018-08-06T11:19:33.770Z,994.51
2018-08-06T11:20:33.137Z,994.48
2018-08-06T11:21:32.457Z,994.49
2018-08-06T11:22:33.884Z,994.45
2018-08-06T11:23:35.233Z,994.41
2018-08-06T11:24:34.855Z,994.43
2018-08-06T11:25:34.388Z,994.41
2018-08-06T11:26:34.622Z,994.34
2018-08-06T11:27:34.645Z,994.33
2018-08-06T11:28:34.915Z,994.34
2018-08-06T11:29:37.163Z,994.29
2018-08-06T11:30:36.767Z,994.31
2018-08-06T11:31:34.441Z,994.33
2018-08-06T11:32:35.352Z,994.28
2018-08-06T11:33:36.854Z,994.35
2018-08-06T11:34:37.416Z,994.29
2018-08-06T11:35:36.411Z,994.22
2018-08-06T11:36:35.119Z,994.26
2018-08-06T11:37:35.317Z,994.25
2018-08-06T11:38:38.849Z,994.27
2018-08-06T11:39:36.659Z,994.26
2018-08-06T11:40:37.639Z,994.19
2018-08-06T11:41:39.273Z,994.14
2018-08-06T11:42:37.581Z,994.15
2018-08-06T11:43:37.495Z,994.13
2018-08-06T11:44:37.868Z,994.13
2018-08-06T11:45:38.289Z,994.09
2018-08-06T11:46:36.844Z,994.12
2018-08-06T11:47:37.209Z,994.08
2018-08-06T11:48:37.223Z,994.06
2018-08-06T11:49:37.415Z,994.06
2018-08-06T11:50:37.614Z,994.04
2018-08-06T11:51:37.819Z,993.99
2018-08-06T11:52:38.054Z,993.93
2018-08-06T11:53:38.245Z,993.92
2018-08-06T11:54:38.422Z,993.88
2018-08-06T11:55:38.613Z,993.82
2018-08-06T11:56:38.882Z,993.80
2018-08-06T11:57:38.998Z,993.78
2018-08-06T11:58:39.339Z,993.75
2018-08-06T11:59:39.601Z,993.65
2018-08-06T12:00:39.453Z,993.64
2018-08-06T12:01:39.652Z,993.63
2018-08-06T12:02:39.857Z,993.58
2018-08-06T12:03:40.031Z,993.52
2018-08-06T12:04:40.221Z,993.46
2018-08-06T12:05:40.408Z,993.40
2018-08-06T12:06:40.595Z,993.34
2018-08-06T12:07:40.834Z,993.26
2018-08-06T12:08:41.046Z,993.23
2018-08-06T12:09:41.201Z,993.16
2018-08-06T12:10:41.402Z,993.15
2018-08-06T12:11:41.584Z,993.15
2018-08-06T12:12:41.774Z,993.09
2018-08-06T12:13:41.970Z,993.10
2018-08-06T12:14:42.152Z,993.10
2018-08-06T12:15:42.442Z,993.08
2018-08-06T12:16:42.543Z,993.14
2018-08-06T12:17:42.693Z,993.11
2018-08-06T12:18:42.876Z,993.13
2018-08-06T12:19:43.067Z,993.09
2018-08-06T12:20:43.259Z,993.05
2018-08-06T12:21:43.468Z,993.10
2018-08-06T12:22:43.759Z,993.11
2018-08-06T12:23:43.877Z,993.04
2018-08-06T12:24:44.116Z,993.05
2018-08-06T12:25:44.189Z,993.02
2018-08-06T12:26:44.373Z,993.06
2018-08-06T12:27:44.620Z,993.07
2018-08-06T12:28:44.677Z,993.01
2018-08-06T12:29:44.899Z,993.01
2018-08-06T12:30:45.098Z,992.98